createdAt,value
2022-12-12T00:00:44.410Z,52.88
2022-12-12T00:03:12.476Z,50.63
2022-12-12T00:05:40.431Z,53.95
2022-12-12T00:08:08.466Z,48.92
2022-12-12T00:10:37.185Z,47.53
2022-12-12T00:13:05.685Z,54.00
2022-12-12T00:15:35.021Z,51.22
2022-12-12T00:18:03.063Z,48.70
2022-12-12T00:20:30.971Z,49.42
2022-12-12T00:22:58.895Z,53.33
2022-12-12T00:25:26.749Z,48.42
2022-12-12T00:27:54.627Z,46.95
2022-12-12T00:30:22.730Z,50.25
2022-12-12T00:32:52.083Z,48.80
2022-12-12T00:35:20.035Z,45.75
2022-12-12T00:37:47.910Z,44.92
2022-12-12T00:40:15.774Z,45.72
2022-12-12T00:42:43.725Z,50.58
2022-12-12T00:45:12.788Z,45.58
2022-12-12T00:47:40.808Z,46.08
2022-12-12T00:50:11.221Z,45.40
2022-12-12T00:52:39.438Z,50.53
2022-12-12T00:55:08.163Z,49.28
2022-12-12T00:57:36.089Z,55.60
2022-12-12T01:00:04.159Z,52.83
2022-12-12T01:02:33.138Z,46.60
2022-12-12T01:05:01.252Z,60.67
2022-12-12T01:07:30.548Z,58.83
2022-12-12T01:09:58.496Z,57.25
2022-12-12T01:12:26.438Z,50.15
2022-12-12T01:14:54.446Z,52.90
2022-12-12T01:17:22.405Z,54.63
2022-12-12T01:19:50.384Z,54.10
2022-12-12T01:22:18.348Z,55.13
2022-12-12T01:24:47.935Z,53.70
2022-12-12T01:27:15.810Z,62.03
2022-12-12T01:29:43.668Z,55.10
2022-12-12T01:32:11.594Z,60.17
2022-12-12T01:34:39.510Z,60.10
2022-12-12T01:37:07.453Z,57.85
2022-12-12T01:39:35.395Z,54.70
2022-12-12T01:42:04.808Z,58.55
2022-12-12T01:44:43.385Z,58.33
2022-12-12T01:47:12.946Z,53.97
2022-12-12T01:49:43.657Z,56.95
2022-12-12T01:52:16.398Z,56.38
2022-12-12T01:54:47.750Z,55.90
2022-12-12T01:57:22.200Z,57.25
2022-12-12T01:59:50.258Z,61.13
2022-12-12T02:02:18.412Z,55.25
2022-12-12T02:04:46.675Z,52.13
2022-12-12T02:07:15.403Z,61.72
2022-12-12T02:09:43.527Z,54.08
2022-12-12T02:12:14.926Z,56.35
2022-12-12T02:14:48.327Z,57.58
2022-12-12T02:17:47.609Z,53.05
2022-12-12T02:20:44.598Z,52.80
2022-12-12T02:24:02.977Z,61.72
2022-12-12T02:27:09.367Z,63.78
2022-12-12T02:30:14.088Z,62.13
2022-12-12T02:32:54.395Z,66.50
2022-12-12T02:35:30.777Z,67.43
2022-12-12T02:38:06.888Z,64.95
2022-12-12T02:40:39.661Z,71.93
2022-12-12T02:43:14.038Z,66.30
2022-12-12T02:45:47.524Z,68.72
2022-12-12T02:48:25.609Z,74.03
2022-12-12T02:50:57.198Z,71.07
2022-12-12T02:53:25.231Z,83.70
2022-12-12T02:56:03.081Z,68.60
2022-12-12T02:58:31.894Z,76.72
2022-12-12T03:01:12.130Z,69.22
2022-12-12T03:04:05.410Z,82.35
2022-12-12T03:07:05.848Z,70.05
2022-12-12T03:09:47.359Z,78.10
2022-12-12T03:12:22.365Z,71.50
2022-12-12T03:14:59.806Z,77.53
2022-12-12T03:17:33.035Z,72.18
2022-12-12T03:20:12.334Z,70.07
2022-12-12T03:22:46.897Z,75.53
2022-12-12T03:25:18.698Z,70.45
2022-12-12T03:27:54.310Z,74.07
2022-12-12T03:30:22.623Z,74.82
2022-12-12T03:32:56.036Z,70.25
2022-12-12T03:35:28.910Z,75.50
2022-12-12T03:38:03.994Z,73.35
2022-12-12T03:40:36.828Z,69.20
2022-12-12T03:43:08.083Z,75.57
2022-12-12T03:45:40.273Z,75.07
2022-12-12T03:48:13.328Z,66.80
2022-12-12T03:50:46.654Z,71.20
2022-12-12T03:53:19.593Z,69.43
2022-12-12T03:55:53.625Z,70.13
2022-12-12T03:58:28.334Z,67.50
2022-12-12T04:01:00.449Z,61.75
2022-12-12T04:03:34.754Z,62.50
2022-12-12T04:06:28.339Z,71.05
2022-12-12T04:09:17.025Z,58.90
2022-12-12T04:12:21.978Z,61.97
2022-12-12T04:15:03.297Z,69.88
2022-12-12T04:17:39.437Z,64.05
2022-12-12T04:20:36.306Z,73.00
2022-12-12T04:23:18.883Z,65.05
2022-12-12T04:26:16.686Z,77.10
2022-12-12T04:28:52.194Z,69.03
2022-12-12T04:31:24.219Z,62.90
2022-12-12T04:33:55.925Z,61.60
2022-12-12T04:36:25.148Z,71.00
2022-12-12T04:38:54.501Z,76.43
2022-12-12T04:41:23.574Z,68.93
2022-12-12T04:43:53.511Z,70.10
2022-12-12T04:46:25.598Z,72.40
2022-12-12T04:48:57.042Z,64.95
2022-12-12T04:51:29.210Z,64.10
2022-12-12T04:54:03.879Z,69.30
2022-12-12T04:56:34.398Z,68.63
2022-12-12T04:59:03.819Z,66.75
2022-12-12T05:01:39.884Z,62.28
2022-12-12T05:04:15.257Z,69.32
2022-12-12T05:06:47.143Z,69.05
2022-12-12T05:09:18.563Z,62.85
2022-12-12T05:11:46.495Z,65.40
2022-12-12T05:14:16.518Z,67.15
2022-12-12T05:16:47.535Z,61.65
2022-12-12T05:19:15.783Z,65.15
2022-12-12T05:21:43.706Z,70.63
2022-12-12T05:24:11.629Z,74.07
2022-12-12T05:26:40.983Z,63.22
2022-12-12T05:29:08.921Z,69.60
2022-12-12T05:31:37.133Z,60.30
2022-12-12T05:34:05.574Z,59.17
2022-12-12T05:36:33.485Z,64.60
2022-12-12T05:39:01.369Z,60.78
2022-12-12T05:41:29.270Z,62.20
2022-12-12T05:43:58.488Z,68.75
2022-12-12T05:46:26.466Z,67.97
2022-12-12T05:48:54.399Z,61.67
2022-12-12T05:51:23.266Z,68.72
2022-12-12T05:53:51.169Z,59.55
2022-12-12T05:56:19.650Z,68.13
2022-12-12T05:58:47.539Z,59.67
2022-12-12T06:01:17.091Z,64.07
2022-12-12T06:03:45.028Z,67.57
2022-12-12T06:06:13.079Z,61.50
2022-12-12T06:08:41.047Z,60.22
2022-12-12T06:11:09.550Z,69.63
2022-12-12T06:13:38.367Z,69.28
2022-12-12T06:16:10.955Z,65.00
2022-12-12T06:18:40.247Z,69.78
2022-12-12T06:21:10.474Z,65.70
2022-12-12T06:23:39.197Z,68.45
2022-12-12T06:26:08.924Z,63.33
2022-12-12T06:28:37.090Z,70.20
2022-12-12T06:31:11.083Z,60.53
2022-12-12T06:33:41.809Z,63.47
2022-12-12T06:36:12.717Z,64.85
2022-12-12T06:38:42.227Z,62.38
2022-12-12T06:41:11.558Z,55.38
2022-12-12T06:43:40.133Z,65.97
2022-12-12T06:46:11.374Z,61.97
2022-12-12T06:48:40.654Z,55.88
2022-12-12T06:51:09.873Z,63.70
2022-12-12T06:53:38.680Z,59.95
2022-12-12T06:56:08.567Z,56.15
2022-12-12T06:58:36.738Z,53.88
2022-12-12T07:01:06.086Z,53.88
2022-12-12T07:03:34.353Z,62.28
2022-12-12T07:06:03.586Z,58.55
2022-12-12T07:08:31.714Z,57.17
2022-12-12T07:11:04.995Z,54.83
2022-12-12T07:13:32.875Z,59.63
2022-12-12T07:16:00.817Z,58.72
2022-12-12T07:18:29.358Z,58.92
2022-12-12T07:20:57.455Z,55.85
2022-12-12T07:23:27.136Z,57.42
2022-12-12T07:25:55.134Z,56.88
2022-12-12T07:28:23.233Z,54.22
2022-12-12T07:30:51.779Z,54.45
2022-12-12T07:33:20.223Z,53.83
2022-12-12T07:35:48.144Z,52.90
2022-12-12T07:38:16.259Z,47.88
2022-12-12T07:40:45.525Z,49.72
2022-12-12T07:43:13.440Z,56.83
2022-12-12T07:45:44.930Z,58.13
2022-12-12T07:48:12.881Z,59.30
2022-12-12T07:50:41.468Z,49.78
2022-12-12T07:53:09.828Z,51.83
2022-12-12T07:55:40.544Z,60.38
2022-12-12T07:58:09.852Z,61.60
2022-12-12T08:00:37.925Z,53.92
2022-12-12T08:03:05.854Z,52.95
2022-12-12T08:05:33.897Z,51.60
2022-12-12T08:08:01.850Z,52.33
2022-12-12T08:10:29.824Z,61.88
2022-12-12T08:12:57.930Z,52.35
2022-12-12T08:15:27.419Z,53.42
2022-12-12T08:17:55.316Z,50.55
2022-12-12T08:20:23.856Z,54.65
2022-12-12T08:22:51.932Z,53.92
2022-12-12T08:25:19.993Z,51.22
2022-12-12T08:27:48.089Z,61.30
2022-12-12T08:30:16.348Z,49.95
2022-12-12T08:32:45.634Z,50.10
2022-12-12T08:35:14.030Z,52.60
2022-12-12T08:37:42.139Z,44.13
2022-12-12T08:40:11.480Z,48.72
2022-12-12T08:42:39.702Z,52.80
2022-12-12T08:45:08.527Z,49.67
2022-12-12T08:47:36.447Z,46.05
2022-12-12T08:50:07.153Z,57.80
2022-12-12T08:52:35.139Z,48.85
2022-12-12T08:55:03.093Z,55.25
2022-12-12T08:57:31.061Z,50.05
2022-12-12T08:59:59.019Z,47.83
2022-12-12T09:02:28.230Z,50.65
2022-12-12T09:04:56.205Z,52.95
2022-12-12T09:07:25.508Z,53.78
2022-12-12T09:09:53.594Z,43.10
2022-12-12T09:12:21.540Z,46.15
2022-12-12T09:14:49.437Z,45.58
2022-12-12T09:17:17.357Z,48.58
2022-12-12T09:19:45.702Z,43.35
2022-12-12T09:22:13.731Z,51.67
2022-12-12T09:24:43.026Z,49.70
2022-12-12T09:27:11.029Z,46.58
2022-12-12T09:29:39.345Z,42.92
2022-12-12T09:32:07.581Z,48.88
2022-12-12T09:34:35.541Z,50.70
2022-12-12T09:37:03.483Z,41.42
2022-12-12T09:39:31.828Z,49.17
2022-12-12T09:42:10.718Z,49.67
2022-12-12T09:44:39.603Z,43.33
2022-12-12T09:47:15.681Z,44.28
2022-12-12T09:49:48.216Z,49.42
2022-12-12T09:52:18.265Z,43.45
2022-12-12T09:54:46.779Z,44.40
2022-12-12T09:57:27.813Z,44.67
2022-12-12T10:00:03.069Z,40.05
2022-12-12T10:02:44.617Z,44.83
2022-12-12T10:05:23.116Z,38.67
2022-12-12T10:08:00.421Z,39.88
2022-12-12T10:10:32.766Z,42.20
2022-12-12T10:13:04.875Z,39.17
2022-12-12T10:15:35.912Z,43.88
2022-12-12T10:18:06.843Z,35.00
2022-12-12T10:20:41.952Z,35.17
2022-12-12T10:23:17.509Z,36.78
2022-12-12T10:25:50.656Z,33.00
2022-12-12T10:28:22.313Z,40.35
2022-12-12T10:31:02.953Z,33.30
2022-12-12T10:33:41.285Z,32.45
2022-12-12T10:36:15.296Z,32.67
2022-12-12T10:39:03.031Z,30.65
2022-12-12T10:41:41.087Z,29.10
2022-12-12T10:46:47.463Z,27.30
2022-12-12T10:49:17.408Z,22.65
2022-12-12T10:51:48.528Z,22.77
2022-12-12T10:54:19.262Z,22.15
2022-12-12T10:57:10.463Z,23.75
2022-12-12T10:59:47.369Z,22.90
2022-12-12T11:02:29.311Z,20.25
2022-12-12T11:05:09.956Z,20.00
2022-12-12T11:07:39.992Z,20.73
2022-12-12T11:10:30.589Z,21.10
2022-12-12T11:13:04.662Z,17.65
2022-12-12T11:15:40.621Z,17.63
2022-12-12T11:18:15.493Z,19.80
2022-12-12T11:20:48.817Z,18.58
2022-12-12T11:23:20.769Z,17.92
2022-12-12T11:25:56.503Z,18.25
2022-12-12T11:28:27.443Z,16.52
2022-12-12T11:30:57.609Z,19.40
2022-12-12T11:33:32.875Z,16.88
2022-12-12T11:36:04.009Z,16.08
2022-12-12T11:38:36.697Z,21.10
2022-12-12T11:41:07.719Z,15.52
2022-12-12T11:43:37.832Z,18.77
2022-12-12T11:46:17.192Z,13.90
2022-12-12T11:48:56.750Z,13.68
2022-12-12T11:51:37.248Z,15.90
2022-12-12T11:54:08.414Z,14.65
2022-12-12T11:56:46.735Z,14.23
2022-12-12T11:59:39.965Z,16.05
2022-12-12T12:02:29.133Z,16.35
2022-12-12T12:05:09.523Z,11.52
2022-12-12T12:07:52.819Z,13.05
2022-12-12T12:10:36.102Z,11.63
2022-12-12T12:13:22.547Z,10.68
2022-12-12T12:15:56.251Z,10.80
2022-12-12T12:18:38.964Z,13.38
2022-12-12T12:21:29.103Z,12.05
2022-12-12T12:24:09.281Z,14.98
2022-12-12T12:26:45.511Z,14.40
2022-12-12T12:29:27.991Z,14.48
2022-12-12T12:32:06.661Z,10.82
2022-12-12T12:34:48.447Z,11.77
2022-12-12T12:37:30.532Z,9.13
2022-12-12T12:40:11.338Z,10.07
2022-12-12T12:45:29.126Z,10.77
2022-12-12T12:48:07.247Z,9.15
2022-12-12T12:50:44.033Z,10.32
2022-12-12T12:53:22.170Z,12.45
2022-12-12T12:58:23.696Z,9.45
2022-12-12T13:00:59.581Z,9.70
2022-12-12T13:03:32.404Z,6.63
2022-12-12T13:06:05.813Z,10.13
2022-12-12T13:08:41.059Z,7.32
2022-12-12T13:11:14.313Z,6.40
2022-12-12T13:13:45.151Z,5.47
2022-12-12T13:16:16.913Z,8.80
2022-12-12T13:18:49.054Z,7.45
2022-12-12T13:21:25.497Z,7.45
2022-12-12T13:24:00.044Z,5.75
2022-12-12T13:26:34.726Z,8.48
2022-12-12T13:29:16.380Z,8.27
2022-12-12T13:32:05.460Z,6.80
2022-12-12T13:34:34.887Z,6.63
2022-12-12T13:37:07.273Z,7.43
2022-12-12T13:39:37.766Z,5.93
2022-12-12T13:42:07.232Z,7.53
2022-12-12T13:44:39.362Z,12.23
2022-12-12T13:47:29.289Z,5.57
2022-12-12T13:49:59.911Z,10.95
2022-12-12T13:52:30.472Z,10.75
2022-12-12T13:55:23.171Z,7.03
2022-12-12T13:58:18.486Z,5.78
2022-12-12T14:00:46.421Z,7.57
2022-12-12T14:03:33.245Z,7.88
2022-12-12T14:06:12.251Z,4.97
2022-12-12T14:08:49.380Z,2.53
2022-12-12T14:11:28.568Z,4.38
2022-12-12T14:14:20.793Z,2.92
2022-12-12T14:16:56.933Z,4.03
2022-12-12T14:19:33.704Z,6.22
2022-12-12T14:22:02.133Z,10.68
2022-12-12T14:25:08.197Z,7.25
2022-12-12T14:28:02.581Z,7.13
2022-12-12T14:30:41.680Z,6.72
2022-12-12T14:33:37.375Z,5.68
2022-12-12T14:36:21.596Z,6.78
2022-12-12T14:39:01.450Z,7.65
2022-12-12T14:41:35.597Z,13.30
2022-12-12T14:44:37.164Z,10.20
2022-12-12T14:46:59.347Z,5.93
2022-12-12T14:49:27.499Z,9.05
2022-12-12T14:51:58.912Z,10.00
2022-12-12T14:54:27.362Z,12.77
2022-12-12T14:56:58.914Z,10.27
2022-12-12T14:59:30.697Z,9.48
2022-12-12T15:02:01.121Z,12.73
2022-12-12T15:04:31.630Z,8.25
2022-12-12T15:07:01.722Z,14.00
2022-12-12T15:09:31.633Z,10.70
2022-12-12T15:12:16.194Z,13.30
2022-12-12T15:14:55.019Z,10.30
2022-12-12T15:17:26.541Z,11.13
2022-12-12T15:19:56.887Z,19.50
2022-12-12T15:22:28.167Z,11.90
2022-12-12T15:24:58.135Z,9.10
2022-12-12T15:27:30.702Z,10.93
2022-12-12T15:29:59.931Z,13.52
2022-12-12T15:32:29.532Z,13.57
2022-12-12T15:35:02.877Z,16.08
2022-12-12T15:37:32.826Z,11.32
2022-12-12T15:40:29.627Z,11.63
2022-12-12T15:42:59.857Z,9.40
2022-12-12T15:45:33.280Z,11.02
2022-12-12T15:48:01.932Z,11.00
2022-12-12T15:50:37.403Z,12.35
2022-12-12T15:53:18.544Z,15.10
2022-12-12T15:55:55.093Z,17.20
2022-12-12T15:58:29.483Z,17.02
2022-12-12T16:01:05.632Z,19.15
2022-12-12T16:03:34.791Z,15.15
2022-12-12T16:06:06.585Z,18.75
2022-12-12T16:08:44.877Z,17.38
2022-12-12T16:11:37.169Z,17.60
2022-12-12T16:14:05.310Z,18.42
2022-12-12T16:16:40.508Z,23.08
2022-12-12T16:19:27.523Z,15.45
2022-12-12T16:21:56.283Z,18.45
2022-12-12T16:24:27.267Z,15.07
2022-12-12T16:26:58.485Z,22.58
2022-12-12T16:29:26.484Z,24.00
2022-12-12T16:31:56.030Z,21.30
2022-12-12T16:34:24.268Z,27.45
2022-12-12T16:36:52.177Z,30.77
2022-12-12T16:39:20.069Z,30.45
2022-12-12T16:41:49.589Z,35.70
2022-12-12T16:44:17.473Z,33.30
2022-12-12T16:46:45.377Z,36.22
2022-12-12T16:49:15.522Z,32.58
2022-12-12T16:51:43.901Z,32.90
2022-12-12T16:54:16.728Z,36.75
2022-12-12T16:56:50.424Z,33.95
2022-12-12T16:59:19.729Z,34.83
2022-12-12T17:01:47.634Z,40.35
2022-12-12T17:04:20.918Z,40.28
2022-12-12T17:06:49.442Z,42.67
2022-12-12T17:09:17.719Z,37.55
2022-12-12T17:11:45.624Z,39.80
2022-12-12T17:14:17.517Z,36.70
2022-12-12T17:16:46.862Z,41.50
2022-12-12T17:19:14.853Z,47.28
2022-12-12T17:21:42.897Z,40.80
2022-12-12T17:24:10.875Z,45.42
2022-12-12T17:26:39.977Z,42.33
2022-12-12T17:29:09.270Z,47.22
2022-12-12T17:31:37.552Z,43.05
2022-12-12T17:34:07.240Z,41.17
2022-12-12T17:36:35.174Z,38.60
2022-12-12T17:39:03.098Z,39.47
2022-12-12T17:41:30.997Z,36.42
2022-12-12T17:43:59.202Z,47.65
2022-12-12T17:46:28.663Z,43.95
2022-12-12T17:48:59.370Z,42.08
2022-12-12T17:51:29.466Z,43.03
2022-12-12T17:54:00.062Z,43.05
2022-12-12T17:56:28.901Z,43.28
2022-12-12T17:58:56.997Z,44.33
2022-12-12T18:01:28.176Z,45.30
2022-12-12T18:03:57.206Z,43.78
2022-12-12T18:06:26.073Z,44.65
2022-12-12T18:08:56.787Z,36.03
2022-12-12T18:11:27.430Z,59.83
2022-12-12T18:13:57.491Z,43.17
2022-12-12T18:16:26.517Z,49.05
2022-12-12T18:18:55.333Z,49.13
2022-12-12T18:24:15.375Z,52.90
2022-12-12T18:26:43.929Z,45.28
2022-12-12T18:29:14.151Z,46.15
2022-12-12T18:31:42.663Z,44.92
2022-12-12T18:34:10.716Z,50.67
2022-12-12T18:36:38.662Z,46.90
2022-12-12T18:39:07.507Z,52.90
2022-12-12T18:41:37.659Z,59.17
2022-12-12T18:44:07.237Z,60.20
2022-12-12T18:46:42.431Z,53.95
2022-12-12T18:49:13.551Z,48.40
2022-12-12T18:51:42.030Z,48.30
2022-12-12T18:54:14.636Z,49.25
2022-12-12T18:56:45.219Z,44.05
2022-12-12T18:59:13.597Z,41.50
2022-12-12T19:01:41.613Z,41.05
2022-12-12T19:04:14.052Z,44.33
2022-12-12T19:06:42.846Z,46.67
2022-12-12T19:09:15.051Z,41.83
2022-12-12T19:11:45.028Z,49.65
2022-12-12T19:14:14.794Z,48.88
2022-12-12T19:16:43.585Z,46.03
2022-12-12T19:19:12.328Z,49.05
2022-12-12T19:21:40.989Z,48.20
2022-12-12T19:24:12.020Z,46.72
2022-12-12T19:26:41.166Z,49.42
2022-12-12T19:29:13.408Z,45.42
2022-12-12T19:31:41.603Z,54.03
2022-12-12T19:34:11.829Z,46.53
2022-12-12T19:36:40.377Z,50.60
2022-12-12T19:39:09.219Z,58.20
2022-12-12T19:41:37.560Z,51.00
2022-12-12T19:44:08.715Z,50.70
2022-12-12T19:46:38.096Z,46.97
2022-12-12T19:49:08.918Z,50.45
2022-12-12T19:51:39.336Z,44.55
2022-12-12T19:54:09.258Z,45.05
2022-12-12T19:56:40.539Z,50.90
2022-12-12T19:59:09.062Z,47.03
2022-12-12T20:01:38.874Z,47.15
2022-12-12T20:04:09.177Z,46.33
2022-12-12T20:06:44.588Z,43.63
2022-12-12T20:09:14.056Z,41.35
2022-12-12T20:11:43.295Z,48.22
2022-12-12T20:14:13.566Z,45.08
2022-12-12T20:16:43.137Z,45.00
2022-12-12T20:19:12.212Z,51.85
2022-12-12T20:22:00.250Z,54.22
2022-12-12T20:24:29.264Z,50.75
2022-12-12T20:26:57.380Z,46.67
2022-12-12T20:29:25.364Z,50.25
2022-12-12T20:31:54.678Z,45.67
2022-12-12T20:34:24.365Z,44.80
2022-12-12T20:36:55.012Z,43.50
2022-12-12T20:39:23.255Z,49.65
2022-12-12T20:41:53.217Z,48.63
2022-12-12T20:44:22.412Z,48.42
2022-12-12T20:46:50.386Z,52.55
2022-12-12T20:49:22.203Z,49.63
2022-12-12T20:51:58.490Z,47.30
2022-12-12T20:54:28.429Z,44.22
2022-12-12T20:56:56.929Z,54.05
2022-12-12T20:59:24.951Z,50.20
2022-12-12T21:01:53.606Z,55.80
2022-12-12T21:04:24.140Z,49.85
2022-12-12T21:06:52.357Z,49.53
2022-12-12T21:09:26.424Z,46.15
2022-12-12T21:11:56.294Z,54.35
2022-12-12T21:14:24.787Z,58.00
2022-12-12T21:16:53.176Z,54.17
2022-12-12T21:19:23.183Z,47.97
2022-12-12T21:21:51.520Z,58.33
2022-12-12T21:24:20.254Z,46.85
2022-12-12T21:26:48.738Z,48.53
2022-12-12T21:29:17.452Z,43.92
2022-12-12T21:31:51.669Z,43.38
2022-12-12T21:34:23.559Z,48.20
2022-12-12T21:36:55.576Z,46.90
2022-12-12T21:39:26.660Z,44.22
2022-12-12T21:41:54.706Z,46.25
2022-12-12T21:44:23.038Z,40.08
2022-12-12T21:46:51.113Z,47.42
2022-12-12T21:49:36.242Z,43.67
2022-12-12T21:52:09.947Z,44.92
2022-12-12T21:54:37.883Z,41.78
2022-12-12T21:57:07.786Z,47.33
2022-12-12T21:59:37.472Z,43.17
2022-12-12T22:02:07.200Z,48.53
2022-12-12T22:04:35.287Z,46.53
2022-12-12T22:07:03.325Z,45.60
2022-12-12T22:09:32.591Z,44.47
2022-12-12T22:12:03.882Z,49.78
2022-12-12T22:14:33.175Z,54.63
2022-12-12T22:17:01.129Z,43.08
2022-12-12T22:19:29.273Z,45.60
2022-12-12T22:21:57.242Z,51.25
2022-12-12T22:24:26.018Z,43.95
2022-12-12T22:26:55.321Z,41.65
2022-12-12T22:29:23.303Z,36.60
2022-12-12T22:31:52.382Z,42.65
2022-12-12T22:34:23.166Z,46.42
2022-12-12T22:36:51.869Z,47.20
2022-12-12T22:39:22.100Z,37.50
2022-12-12T22:41:50.552Z,42.55
2022-12-12T22:44:21.337Z,41.08
2022-12-12T22:46:51.652Z,44.90
2022-12-12T22:49:22.505Z,48.15
2022-12-12T22:51:50.853Z,43.55
2022-12-12T22:54:19.779Z,56.53
2022-12-12T22:56:47.739Z,45.53
2022-12-12T22:59:15.815Z,45.53
2022-12-12T23:01:45.189Z,45.00
2022-12-12T23:04:14.556Z,45.67
2022-12-12T23:06:43.409Z,46.97
2022-12-12T23:09:15.310Z,49.25
2022-12-12T23:11:44.398Z,47.72
2022-12-12T23:14:15.259Z,49.20
2022-12-12T23:16:45.345Z,48.92
2022-12-12T23:19:15.975Z,53.80
2022-12-12T23:21:44.246Z,49.35
2022-12-12T23:24:12.337Z,48.22
2022-12-12T23:26:40.477Z,45.40
2022-12-12T23:29:10.156Z,45.42
2022-12-12T23:31:39.855Z,50.53
2022-12-12T23:34:13.992Z,50.35
2022-12-12T23:36:42.275Z,42.83
2022-12-12T23:39:12.295Z,44.10
2022-12-12T23:41:40.462Z,44.80
2022-12-12T23:44:09.348Z,48.78
2022-12-12T23:46:37.329Z,45.20
2022-12-12T23:49:07.260Z,46.15
2022-12-12T23:51:38.963Z,46.75
2022-12-12T23:54:11.581Z,44.65
2022-12-12T23:56:40.463Z,41.95
2022-12-12T23:59:14.094Z,44.45
